sensor_id;sensor_type;location;lat;lon;timestamp;P1;durP1;ratioP1;P2;durP2;ratioP2
68126;SDS011;54931;52.098;21.006;2022-07-09T00:02:13;10.20;;;5.40;;
68126;SDS011;54931;52.098;21.006;2022-07-09T00:04:40;8.60;;;5.60;;
68126;SDS011;54931;52.098;21.006;2022-07-09T00:07:08;11.90;;;5.50;;
68126;SDS011;54931;52.098;21.006;2022-07-09T00:09:35;8.20;;;5.90;;
68126;SDS011;54931;52.098;21.006;2022-07-09T00:12:02;7.90;;;5.80;;
68126;SDS011;54931;52.098;21.006;2022-07-09T00:14:30;12.70;;;5.70;;
68126;SDS011;54931;52.098;21.006;2022-07-09T00:16:57;11.00;;;6.10;;
68126;SDS011;54931;52.098;21.006;2022-07-09T00:19:24;8.60;;;5.40;;
68126;SDS011;54931;52.098;21.006;2022-07-09T00:21:51;7.30;;;4.90;;
68126;SDS011;54931;52.098;21.006;2022-07-09T00:24:18;8.30;;;5.80;;
68126;SDS011;54931;52.098;21.006;2022-07-09T00:26:46;10.40;;;5.70;;
68126;SDS011;54931;52.098;21.006;2022-07-09T00:29:13;9.00;;;5.30;;
68126;SDS011;54931;52.098;21.006;2022-07-09T00:31:40;7.60;;;5.60;;
68126;SDS011;54931;52.098;21.006;2022-07-09T00:34:08;7.00;;;5.20;;
68126;SDS011;54931;52.098;21.006;2022-07-09T00:36:35;10.90;;;5.50;;
68126;SDS011;54931;52.098;21.006;2022-07-09T00:39:02;9.30;;;5.30;;
68126;SDS011;54931;52.098;21.006;2022-07-09T00:41:29;9.70;;;5.80;;
68126;SDS011;54931;52.098;21.006;2022-07-09T00:43:57;7.10;;;5.50;;
68126;SDS011;54931;52.098;21.006;2022-07-09T00:46:24;8.70;;;5.60;;
68126;SDS011;54931;52.098;21.006;2022-07-09T00:48:51;8.80;;;6.10;;
68126;SDS011;54931;52.098;21.006;2022-07-09T00:51:19;11.20;;;5.90;;
68126;SDS011;54931;52.098;21.006;2022-07-09T00:53:48;8.60;;;5.90;;
68126;SDS011;54931;52.098;21.006;2022-07-09T00:56:17;9.50;;;6.10;;
68126;SDS011;54931;52.098;21.006;2022-07-09T00:58:45;11.90;;;6.40;;
68126;SDS011;54931;52.098;21.006;2022-07-09T01:01:13;9.80;;;6.10;;
68126;SDS011;54931;52.098;21.006;2022-07-09T01:03:40;8.80;;;6.50;;
68126;SDS011;54931;52.098;21.006;2022-07-09T01:06:08;12.90;;;6.40;;
68126;SDS011;54931;52.098;21.006;2022-07-09T01:08:35;9.40;;;6.80;;
68126;SDS011;54931;52.098;21.006;2022-07-09T01:11:03;10.90;;;6.70;;
68126;SDS011;54931;52.098;21.006;2022-07-09T01:13:30;11.30;;;6.90;;
68126;SDS011;54931;52.098;21.006;2022-07-09T01:15:57;8.40;;;6.30;;
68126;SDS011;54931;52.098;21.006;2022-07-09T01:18:24;9.70;;;6.00;;
68126;SDS011;54931;52.098;21.006;2022-07-09T01:20:52;9.60;;;6.50;;
68126;SDS011;54931;52.098;21.006;2022-07-09T01:23:19;13.60;;;7.20;;
68126;SDS011;54931;52.098;21.006;2022-07-09T01:25:46;12.50;;;7.20;;
68126;SDS011;54931;52.098;21.006;2022-07-09T01:28:14;16.30;;;7.00;;
68126;SDS011;54931;52.098;21.006;2022-07-09T01:30:41;11.30;;;6.80;;
68126;SDS011;54931;52.098;21.006;2022-07-09T01:33:08;8.30;;;5.80;;
68126;SDS011;54931;52.098;21.006;2022-07-09T01:35:35;13.00;;;7.10;;
68126;SDS011;54931;52.098;21.006;2022-07-09T01:38:03;9.60;;;7.00;;
68126;SDS011;54931;52.098;21.006;2022-07-09T01:40:30;11.20;;;6.30;;
68126;SDS011;54931;52.098;21.006;2022-07-09T01:42:58;9.90;;;6.50;;
68126;SDS011;54931;52.098;21.006;2022-07-09T01:45:25;12.40;;;6.40;;
68126;SDS011;54931;52.098;21.006;2022-07-09T01:47:52;9.30;;;6.20;;
68126;SDS011;54931;52.098;21.006;2022-07-09T01:50:20;12.20;;;6.50;;
68126;SDS011;54931;52.098;21.006;2022-07-09T01:52:47;15.80;;;7.10;;
68126;SDS011;54931;52.098;21.006;2022-07-09T01:55:15;12.00;;;6.50;;
68126;SDS011;54931;52.098;21.006;2022-07-09T01:57:42;10.90;;;6.40;;
68126;SDS011;54931;52.098;21.006;2022-07-09T02:00:10;11.20;;;6.90;;
68126;SDS011;54931;52.098;21.006;2022-07-09T02:02:38;11.90;;;6.60;;
68126;SDS011;54931;52.098;21.006;2022-07-09T02:05:06;12.50;;;6.60;;
68126;SDS011;54931;52.098;21.006;2022-07-09T02:07:34;11.90;;;7.00;;
68126;SDS011;54931;52.098;21.006;2022-07-09T02:10:03;14.40;;;6.80;;
68126;SDS011;54931;52.098;21.006;2022-07-09T02:12:31;11.70;;;7.10;;
68126;SDS011;54931;52.098;21.006;2022-07-09T02:14:59;12.00;;;6.90;;
68126;SDS011;54931;52.098;21.006;2022-07-09T02:17:26;12.00;;;6.80;;
68126;SDS011;54931;52.098;21.006;2022-07-09T02:19:53;13.50;;;6.90;;
68126;SDS011;54931;52.098;21.006;2022-07-09T02:22:20;12.90;;;7.10;;
68126;SDS011;54931;52.098;21.006;2022-07-09T02:24:48;11.40;;;6.60;;
68126;SDS011;54931;52.098;21.006;2022-07-09T02:27:15;15.00;;;7.60;;
68126;SDS011;54931;52.098;21.006;2022-07-09T02:29:42;12.20;;;6.80;;
68126;SDS011;54931;52.098;21.006;2022-07-09T02:32:10;12.90;;;7.10;;
68126;SDS011;54931;52.098;21.006;2022-07-09T02:34:38;15.90;;;7.70;;
68126;SDS011;54931;52.098;21.006;2022-07-09T02:37:06;12.20;;;6.80;;
68126;SDS011;54931;52.098;21.006;2022-07-09T02:39:34;11.90;;;6.90;;
68126;SDS011;54931;52.098;21.006;2022-07-09T02:42:01;16.60;;;7.20;;
68126;SDS011;54931;52.098;21.006;2022-07-09T02:44:28;13.00;;;6.30;;
68126;SDS011;54931;52.098;21.006;2022-07-09T02:46:56;12.30;;;6.60;;
68126;SDS011;54931;52.098;21.006;2022-07-09T02:49:23;11.20;;;5.90;;
68126;SDS011;54931;52.098;21.006;2022-07-09T02:51:50;10.90;;;6.20;;
68126;SDS011;54931;52.098;21.006;2022-07-09T02:54:19;14.50;;;6.40;;
68126;SDS011;54931;52.098;21.006;2022-07-09T02:56:46;12.60;;;6.10;;
68126;SDS011;54931;52.098;21.006;2022-07-09T02:59:13;13.00;;;6.50;;
68126;SDS011;54931;52.098;21.006;2022-07-09T03:01:41;9.90;;;5.70;;
68126;SDS011;54931;52.098;21.006;2022-07-09T03:04:08;12.80;;;6.50;;
68126;SDS011;54931;52.098;21.006;2022-07-09T03:06:36;13.80;;;6.40;;
68126;SDS011;54931;52.098;21.006;2022-07-09T03:09:04;9.60;;;6.20;;
68126;SDS011;54931;52.098;21.006;2022-07-09T03:11:32;11.00;;;6.30;;
68126;SDS011;54931;52.098;21.006;2022-07-09T03:14:00;10.00;;;6.20;;
68126;SDS011;54931;52.098;21.006;2022-07-09T03:16:27;12.60;;;6.50;;
68126;SDS011;54931;52.098;21.006;2022-07-09T03:18:55;11.30;;;6.60;;
68126;SDS011;54931;52.098;21.006;2022-07-09T03:21:22;12.70;;;6.80;;
68126;SDS011;54931;52.098;21.006;2022-07-09T03:23:49;12.50;;;6.80;;
68126;SDS011;54931;52.098;21.006;2022-07-09T03:26:16;11.70;;;7.40;;
68126;SDS011;54931;52.098;21.006;2022-07-09T03:28:43;11.70;;;6.30;;
68126;SDS011;54931;52.098;21.006;2022-07-09T03:31:11;14.10;;;6.70;;
68126;SDS011;54931;52.098;21.006;2022-07-09T03:33:38;10.70;;;6.40;;
68126;SDS011;54931;52.098;21.006;2022-07-09T03:36:05;13.30;;;7.20;;
68126;SDS011;54931;52.098;21.006;2022-07-09T03:38:33;12.60;;;6.60;;
68126;SDS011;54931;52.098;21.006;2022-07-09T03:41:01;13.90;;;6.80;;
68126;SDS011;54931;52.098;21.006;2022-07-09T03:43:28;12.80;;;7.00;;
68126;SDS011;54931;52.098;21.006;2022-07-09T03:45:55;10.70;;;6.00;;
68126;SDS011;54931;52.098;21.006;2022-07-09T03:48:22;13.20;;;7.20;;
68126;SDS011;54931;52.098;21.006;2022-07-09T03:50:50;17.70;;;7.70;;
68126;SDS011;54931;52.098;21.006;2022-07-09T03:53:17;14.40;;;6.40;;
68126;SDS011;54931;52.098;21.006;2022-07-09T03:55:44;13.40;;;7.20;;
68126;SDS011;54931;52.098;21.006;2022-07-09T03:58:11;16.50;;;7.10;;
68126;SDS011;54931;52.098;21.006;2022-07-09T04:00:38;14.20;;;7.30;;
68126;SDS011;54931;52.098;21.006;2022-07-09T04:03:06;13.70;;;6.90;;
68126;SDS011;54931;52.098;21.006;2022-07-09T04:05:33;16.30;;;7.10;;
68126;SDS011;54931;52.098;21.006;2022-07-09T04:08:00;10.50;;;7.10;;
68126;SDS011;54931;52.098;21.006;2022-07-09T04:10:27;11.90;;;6.90;;
68126;SDS011;54931;52.098;21.006;2022-07-09T04:12:54;14.40;;;6.60;;
68126;SDS011;54931;52.098;21.006;2022-07-09T04:15:21;10.60;;;6.70;;
68126;SDS011;54931;52.098;21.006;2022-07-09T04:17:49;16.00;;;7.00;;
68126;SDS011;54931;52.098;21.006;2022-07-09T04:20:16;14.50;;;7.00;;
68126;SDS011;54931;52.098;21.006;2022-07-09T04:22:43;10.40;;;6.80;;
68126;SDS011;54931;52.098;21.006;2022-07-09T04:25:10;12.50;;;6.80;;
68126;SDS011;54931;52.098;21.006;2022-07-09T04:27:37;13.00;;;7.10;;
68126;SDS011;54931;52.098;21.006;2022-07-09T04:30:07;8.20;;;6.40;;
68126;SDS011;54931;52.098;21.006;2022-07-09T04:32:36;12.40;;;6.90;;
68126;SDS011;54931;52.098;21.006;2022-07-09T04:35:04;14.90;;;7.20;;
68126;SDS011;54931;52.098;21.006;2022-07-09T04:37:32;10.30;;;7.00;;
68126;SDS011;54931;52.098;21.006;2022-07-09T04:39:59;13.50;;;7.00;;
68126;SDS011;54931;52.098;21.006;2022-07-09T04:42:26;9.70;;;6.00;;
68126;SDS011;54931;52.098;21.006;2022-07-09T04:44:53;13.10;;;6.30;;
68126;SDS011;54931;52.098;21.006;2022-07-09T04:47:20;9.40;;;5.90;;
68126;SDS011;54931;52.098;21.006;2022-07-09T04:49:48;10.40;;;5.60;;
68126;SDS011;54931;52.098;21.006;2022-07-09T04:52:15;12.80;;;5.60;;
68126;SDS011;54931;52.098;21.006;2022-07-09T04:54:46;8.80;;;5.60;;
68126;SDS011;54931;52.098;21.006;2022-07-09T04:57:14;8.20;;;6.00;;
68126;SDS011;54931;52.098;21.006;2022-07-09T04:59:41;10.20;;;5.70;;
68126;SDS011;54931;52.098;21.006;2022-07-09T05:02:08;9.10;;;5.30;;
68126;SDS011;54931;52.098;21.006;2022-07-09T05:04:35;10.40;;;5.30;;
68126;SDS011;54931;52.098;21.006;2022-07-09T05:07:03;7.60;;;4.60;;
68126;SDS011;54931;52.098;21.006;2022-07-09T05:09:32;9.70;;;5.70;;
68126;SDS011;54931;52.098;21.006;2022-07-09T05:11:59;6.20;;;4.10;;
68126;SDS011;54931;52.098;21.006;2022-07-09T05:14:26;10.00;;;4.30;;
68126;SDS011;54931;52.098;21.006;2022-07-09T05:16:53;5.20;;;3.50;;
68126;SDS011;54931;52.098;21.006;2022-07-09T05:19:21;7.40;;;3.70;;
68126;SDS011;54931;52.098;21.006;2022-07-09T05:21:48;5.20;;;3.70;;
68126;SDS011;54931;52.098;21.006;2022-07-09T05:24:16;5.70;;;3.40;;
68126;SDS011;54931;52.098;21.006;2022-07-09T05:26:43;6.30;;;3.20;;
68126;SDS011;54931;52.098;21.006;2022-07-09T05:29:10;7.60;;;3.40;;
68126;SDS011;54931;52.098;21.006;2022-07-09T05:31:38;4.60;;;3.10;;
68126;SDS011;54931;52.098;21.006;2022-07-09T05:34:05;5.90;;;3.50;;
68126;SDS011;54931;52.098;21.006;2022-07-09T05:36:34;5.80;;;3.30;;
68126;SDS011;54931;52.098;21.006;2022-07-09T05:39:02;4.80;;;3.30;;
68126;SDS011;54931;52.098;21.006;2022-07-09T05:41:29;8.60;;;3.90;;
68126;SDS011;54931;52.098;21.006;2022-07-09T05:43:57;7.90;;;4.20;;
68126;SDS011;54931;52.098;21.006;2022-07-09T05:46:24;7.10;;;3.50;;
68126;SDS011;54931;52.098;21.006;2022-07-09T05:48:51;6.30;;;3.20;;
68126;SDS011;54931;52.098;21.006;2022-07-09T05:51:18;7.60;;;3.60;;
68126;SDS011;54931;52.098;21.006;2022-07-09T05:53:46;5.40;;;3.70;;
68126;SDS011;54931;52.098;21.006;2022-07-09T05:56:13;5.70;;;4.10;;
68126;SDS011;54931;52.098;21.006;2022-07-09T05:58:40;7.10;;;4.50;;
68126;SDS011;54931;52.098;21.006;2022-07-09T06:01:07;6.90;;;4.40;;
68126;SDS011;54931;52.098;21.006;2022-07-09T06:03:34;11.70;;;4.80;;
68126;SDS011;54931;52.098;21.006;2022-07-09T06:06:02;8.30;;;5.20;;
68126;SDS011;54931;52.098;21.006;2022-07-09T06:08:29;9.50;;;5.30;;
68126;SDS011;54931;52.098;21.006;2022-07-09T06:10:59;7.90;;;4.70;;
68126;SDS011;54931;52.098;21.006;2022-07-09T06:13:27;6.10;;;4.80;;
68126;SDS011;54931;52.098;21.006;2022-07-09T06:15:54;6.50;;;4.60;;
68126;SDS011;54931;52.098;21.006;2022-07-09T06:18:22;5.70;;;4.70;;
68126;SDS011;54931;52.098;21.006;2022-07-09T06:20:49;10.80;;;4.90;;
68126;SDS011;54931;52.098;21.006;2022-07-09T06:23:17;7.20;;;4.40;;
68126;SDS011;54931;52.098;21.006;2022-07-09T06:25:44;8.10;;;4.80;;
68126;SDS011;54931;52.098;21.006;2022-07-09T06:28:11;6.30;;;4.70;;
68126;SDS011;54931;52.098;21.006;2022-07-09T06:30:38;6.20;;;4.40;;
68126;SDS011;54931;52.098;21.006;2022-07-09T06:33:05;4.90;;;4.20;;
68126;SDS011;54931;52.098;21.006;2022-07-09T06:35:33;5.20;;;4.60;;
68126;SDS011;54931;52.098;21.006;2022-07-09T06:38:00;9.90;;;4.90;;
68126;SDS011;54931;52.098;21.006;2022-07-09T06:40:27;7.50;;;5.80;;
68126;SDS011;54931;52.098;21.006;2022-07-09T06:42:54;7.40;;;5.10;;
68126;SDS011;54931;52.098;21.006;2022-07-09T06:45:22;7.60;;;5.40;;
68126;SDS011;54931;52.098;21.006;2022-07-09T06:47:49;8.60;;;5.30;;
68126;SDS011;54931;52.098;21.006;2022-07-09T06:50:17;7.70;;;5.50;;
68126;SDS011;54931;52.098;21.006;2022-07-09T06:52:44;6.80;;;5.40;;
68126;SDS011;54931;52.098;21.006;2022-07-09T06:55:11;6.10;;;4.70;;
68126;SDS011;54931;52.098;21.006;2022-07-09T06:57:39;6.20;;;4.90;;
68126;SDS011;54931;52.098;21.006;2022-07-09T07:00:07;6.40;;;4.90;;
68126;SDS011;54931;52.098;21.006;2022-07-09T07:02:34;5.80;;;4.50;;
68126;SDS011;54931;52.098;21.006;2022-07-09T07:05:02;7.10;;;3.90;;
68126;SDS011;54931;52.098;21.006;2022-07-09T07:07:29;6.40;;;4.40;;
68126;SDS011;54931;52.098;21.006;2022-07-09T07:09:57;5.20;;;3.70;;
68126;SDS011;54931;52.098;21.006;2022-07-09T07:12:24;3.60;;;2.50;;
68126;SDS011;54931;52.098;21.006;2022-07-09T07:14:51;4.30;;;2.30;;
68126;SDS011;54931;52.098;21.006;2022-07-09T07:17:19;3.30;;;2.10;;
68126;SDS011;54931;52.098;21.006;2022-07-09T07:19:46;4.70;;;2.20;;
68126;SDS011;54931;52.098;21.006;2022-07-09T07:22:13;3.70;;;1.90;;
68126;SDS011;54931;52.098;21.006;2022-07-09T07:24:40;3.00;;;1.90;;
68126;SDS011;54931;52.098;21.006;2022-07-09T07:27:08;3.30;;;2.30;;
68126;SDS011;54931;52.098;21.006;2022-07-09T07:29:35;3.80;;;1.70;;
68126;SDS011;54931;52.098;21.006;2022-07-09T07:32:03;2.90;;;1.50;;
68126;SDS011;54931;52.098;21.006;2022-07-09T07:34:30;3.10;;;1.60;;
68126;SDS011;54931;52.098;21.006;2022-07-09T07:36:58;3.70;;;1.60;;
68126;SDS011;54931;52.098;21.006;2022-07-09T07:39:25;3.90;;;1.40;;
68126;SDS011;54931;52.098;21.006;2022-07-09T07:41:53;2.60;;;1.50;;
68126;SDS011;54931;52.098;21.006;2022-07-09T07:44:20;2.20;;;1.50;;
68126;SDS011;54931;52.098;21.006;2022-07-09T07:46:49;3.20;;;1.80;;
68126;SDS011;54931;52.098;21.006;2022-07-09T07:49:16;3.30;;;1.50;;
68126;SDS011;54931;52.098;21.006;2022-07-09T07:51:44;3.00;;;1.50;;
68126;SDS011;54931;52.098;21.006;2022-07-09T07:54:11;3.10;;;1.70;;
68126;SDS011;54931;52.098;21.006;2022-07-09T07:56:39;4.90;;;1.80;;
68126;SDS011;54931;52.098;21.006;2022-07-09T07:59:07;3.10;;;1.60;;
68126;SDS011;54931;52.098;21.006;2022-07-09T08:01:34;2.00;;;1.40;;
68126;SDS011;54931;52.098;21.006;2022-07-09T08:04:02;3.30;;;1.40;;
68126;SDS011;54931;52.098;21.006;2022-07-09T08:06:29;3.00;;;1.50;;
68126;SDS011;54931;52.098;21.006;2022-07-09T08:08:57;3.40;;;1.10;;
68126;SDS011;54931;52.098;21.006;2022-07-09T08:11:24;3.20;;;1.40;;
68126;SDS011;54931;52.098;21.006;2022-07-09T08:13:51;2.10;;;1.50;;
68126;SDS011;54931;52.098;21.006;2022-07-09T08:16:19;2.40;;;1.10;;
68126;SDS011;54931;52.098;21.006;2022-07-09T08:18:47;2.00;;;1.20;;
68126;SDS011;54931;52.098;21.006;2022-07-09T08:21:14;2.70;;;1.30;;
68126;SDS011;54931;52.098;21.006;2022-07-09T08:23:42;3.00;;;1.50;;
68126;SDS011;54931;52.098;21.006;2022-07-09T08:26:21;2.30;;;1.20;;
68126;SDS011;54931;52.098;21.006;2022-07-09T08:28:50;2.70;;;1.40;;
68126;SDS011;54931;52.098;21.006;2022-07-09T08:31:19;4.90;;;1.20;;
68126;SDS011;54931;52.098;21.006;2022-07-09T08:33:47;2.00;;;1.30;;
68126;SDS011;54931;52.098;21.006;2022-07-09T08:36:15;5.20;;;1.20;;
68126;SDS011;54931;52.098;21.006;2022-07-09T08:38:43;2.80;;;1.40;;
68126;SDS011;54931;52.098;21.006;2022-07-09T08:41:12;2.10;;;1.20;;
68126;SDS011;54931;52.098;21.006;2022-07-09T08:43:42;3.80;;;1.40;;
68126;SDS011;54931;52.098;21.006;2022-07-09T08:46:10;3.50;;;1.40;;
68126;SDS011;54931;52.098;21.006;2022-07-09T08:48:38;4.10;;;1.50;;
68126;SDS011;54931;52.098;21.006;2022-07-09T08:51:06;2.30;;;1.50;;
68126;SDS011;54931;52.098;21.006;2022-07-09T08:53:34;5.10;;;1.50;;
68126;SDS011;54931;52.098;21.006;2022-07-09T08:56:10;4.20;;;1.30;;
68126;SDS011;54931;52.098;21.006;2022-07-09T08:58:39;3.10;;;1.30;;
68126;SDS011;54931;52.098;21.006;2022-07-09T09:01:06;3.00;;;1.40;;
68126;SDS011;54931;52.098;21.006;2022-07-09T09:03:35;3.50;;;1.20;;
68126;SDS011;54931;52.098;21.006;2022-07-09T09:06:06;5.60;;;1.40;;
68126;SDS011;54931;52.098;21.006;2022-07-09T09:08:45;2.90;;;1.20;;
68126;SDS011;54931;52.098;21.006;2022-07-09T09:11:20;2.50;;;1.40;;
68126;SDS011;54931;52.098;21.006;2022-07-09T09:13:50;3.90;;;1.50;;
68126;SDS011;54931;52.098;21.006;2022-07-09T09:16:19;2.30;;;1.40;;
68126;SDS011;54931;52.098;21.006;2022-07-09T09:18:52;2.90;;;1.30;;
68126;SDS011;54931;52.098;21.006;2022-07-09T09:21:22;5.50;;;1.70;;
68126;SDS011;54931;52.098;21.006;2022-07-09T09:23:53;2.90;;;1.50;;
68126;SDS011;54931;52.098;21.006;2022-07-09T09:26:25;3.00;;;1.40;;
68126;SDS011;54931;52.098;21.006;2022-07-09T09:28:59;3.00;;;1.50;;
68126;SDS011;54931;52.098;21.006;2022-07-09T09:31:28;3.80;;;1.40;;
68126;SDS011;54931;52.098;21.006;2022-07-09T09:34:15;3.70;;;1.40;;
68126;SDS011;54931;52.098;21.006;2022-07-09T09:36:48;3.10;;;1.50;;
68126;SDS011;54931;52.098;21.006;2022-07-09T09:42:00;4.10;;;1.70;;
68126;SDS011;54931;52.098;21.006;2022-07-09T09:44:30;3.60;;;1.50;;
68126;SDS011;54931;52.098;21.006;2022-07-09T09:47:07;3.50;;;1.50;;
68126;SDS011;54931;52.098;21.006;2022-07-09T09:49:37;3.10;;;1.90;;
68126;SDS011;54931;52.098;21.006;2022-07-09T09:52:09;3.40;;;1.50;;
68126;SDS011;54931;52.098;21.006;2022-07-09T09:54:39;2.30;;;1.50;;
68126;SDS011;54931;52.098;21.006;2022-07-09T09:57:10;5.80;;;1.70;;
68126;SDS011;54931;52.098;21.006;2022-07-09T09:59:42;3.60;;;1.50;;
68126;SDS011;54931;52.098;21.006;2022-07-09T10:02:14;2.50;;;1.30;;
68126;SDS011;54931;52.098;21.006;2022-07-09T10:04:43;4.00;;;1.50;;
68126;SDS011;54931;52.098;21.006;2022-07-09T10:07:12;3.70;;;1.60;;
68126;SDS011;54931;52.098;21.006;2022-07-09T10:09:55;3.70;;;1.50;;
68126;SDS011;54931;52.098;21.006;2022-07-09T10:12:35;6.40;;;1.70;;
68126;SDS011;54931;52.098;21.006;2022-07-09T10:17:53;3.40;;;1.60;;
68126;SDS011;54931;52.098;21.006;2022-07-09T10:20:32;3.90;;;1.50;;
68126;SDS011;54931;52.098;21.006;2022-07-09T10:23:03;4.40;;;1.70;;
68126;SDS011;54931;52.098;21.006;2022-07-09T10:25:43;6.20;;;2.00;;
68126;SDS011;54931;52.098;21.006;2022-07-09T10:28:18;3.80;;;1.70;;
68126;SDS011;54931;52.098;21.006;2022-07-09T10:30:47;3.80;;;1.80;;
68126;SDS011;54931;52.098;21.006;2022-07-09T10:35:52;4.30;;;1.50;;
68126;SDS011;54931;52.098;21.006;2022-07-09T10:38:21;5.40;;;1.70;;
68126;SDS011;54931;52.098;21.006;2022-07-09T10:40:58;4.40;;;1.90;;
68126;SDS011;54931;52.098;21.006;2022-07-09T10:43:40;2.80;;;1.70;;
68126;SDS011;54931;52.098;21.006;2022-07-09T10:46:13;3.70;;;1.80;;
68126;SDS011;54931;52.098;21.006;2022-07-09T10:48:44;4.60;;;2.30;;
68126;SDS011;54931;52.098;21.006;2022-07-09T10:51:22;3.80;;;1.70;;
68126;SDS011;54931;52.098;21.006;2022-07-09T10:53:50;4.90;;;1.70;;
68126;SDS011;54931;52.098;21.006;2022-07-09T10:56:19;6.10;;;1.70;;
68126;SDS011;54931;52.098;21.006;2022-07-09T10:58:50;2.40;;;1.50;;
68126;SDS011;54931;52.098;21.006;2022-07-09T11:01:23;4.70;;;1.80;;
68126;SDS011;54931;52.098;21.006;2022-07-09T11:06:21;5.00;;;1.80;;
68126;SDS011;54931;52.098;21.006;2022-07-09T11:08:48;3.90;;;1.80;;
68126;SDS011;54931;52.098;21.006;2022-07-09T11:11:23;5.30;;;1.80;;
68126;SDS011;54931;52.098;21.006;2022-07-09T11:13:52;2.80;;;1.60;;
68126;SDS011;54931;52.098;21.006;2022-07-09T11:16:23;4.90;;;1.80;;
68126;SDS011;54931;52.098;21.006;2022-07-09T11:18:51;3.10;;;1.40;;
68126;SDS011;54931;52.098;21.006;2022-07-09T11:21:26;3.30;;;1.30;;
68126;SDS011;54931;52.098;21.006;2022-07-09T11:23:54;3.30;;;1.60;;
68126;SDS011;54931;52.098;21.006;2022-07-09T11:26:21;2.50;;;1.20;;
68126;SDS011;54931;52.098;21.006;2022-07-09T11:28:48;3.80;;;1.40;;
68126;SDS011;54931;52.098;21.006;2022-07-09T11:31:18;3.40;;;1.40;;
68126;SDS011;54931;52.098;21.006;2022-07-09T11:33:47;4.70;;;1.40;;
68126;SDS011;54931;52.098;21.006;2022-07-09T11:36:40;4.50;;;1.70;;
68126;SDS011;54931;52.098;21.006;2022-07-09T11:39:32;3.00;;;1.40;;
68126;SDS011;54931;52.098;21.006;2022-07-09T11:42:04;5.50;;;1.30;;
68126;SDS011;54931;52.098;21.006;2022-07-09T11:44:33;2.70;;;1.20;;
68126;SDS011;54931;52.098;21.006;2022-07-09T11:47:10;3.40;;;1.60;;
68126;SDS011;54931;52.098;21.006;2022-07-09T11:49:42;3.10;;;1.40;;
68126;SDS011;54931;52.098;21.006;2022-07-09T11:55:14;3.90;;;1.50;;
68126;SDS011;54931;52.098;21.006;2022-07-09T11:57:55;2.90;;;1.60;;
68126;SDS011;54931;52.098;21.006;2022-07-09T12:00:29;5.30;;;1.50;;
68126;SDS011;54931;52.098;21.006;2022-07-09T12:02:58;4.50;;;1.70;;
68126;SDS011;54931;52.098;21.006;2022-07-09T12:05:33;4.30;;;1.30;;
68126;SDS011;54931;52.098;21.006;2022-07-09T12:08:05;2.90;;;1.40;;
68126;SDS011;54931;52.098;21.006;2022-07-09T12:10:36;2.50;;;1.50;;
68126;SDS011;54931;52.098;21.006;2022-07-09T12:13:08;7.30;;;1.50;;
68126;SDS011;54931;52.098;21.006;2022-07-09T12:15:36;7.90;;;1.60;;
68126;SDS011;54931;52.098;21.006;2022-07-09T12:18:04;3.80;;;1.30;;
68126;SDS011;54931;52.098;21.006;2022-07-09T12:20:32;5.40;;;1.30;;
68126;SDS011;54931;52.098;21.006;2022-07-09T12:22:59;2.90;;;1.50;;
68126;SDS011;54931;52.098;21.006;2022-07-09T12:25:27;3.10;;;1.50;;
68126;SDS011;54931;52.098;21.006;2022-07-09T12:27:54;2.20;;;1.40;;
68126;SDS011;54931;52.098;21.006;2022-07-09T12:30:22;5.50;;;1.80;;
68126;SDS011;54931;52.098;21.006;2022-07-09T12:32:50;3.70;;;1.70;;
68126;SDS011;54931;52.098;21.006;2022-07-09T12:35:17;6.60;;;1.70;;
68126;SDS011;54931;52.098;21.006;2022-07-09T12:37:45;2.70;;;1.60;;
68126;SDS011;54931;52.098;21.006;2022-07-09T12:40:13;4.40;;;1.70;;
68126;SDS011;54931;52.098;21.006;2022-07-09T12:42:40;4.90;;;1.50;;
68126;SDS011;54931;52.098;21.006;2022-07-09T12:45:08;2.40;;;1.40;;
68126;SDS011;54931;52.098;21.006;2022-07-09T12:47:37;4.70;;;1.50;;
68126;SDS011;54931;52.098;21.006;2022-07-09T12:50:05;4.90;;;1.60;;
68126;SDS011;54931;52.098;21.006;2022-07-09T12:52:33;3.90;;;1.80;;
68126;SDS011;54931;52.098;21.006;2022-07-09T12:55:03;4.50;;;1.90;;
68126;SDS011;54931;52.098;21.006;2022-07-09T12:57:31;4.60;;;1.90;;
68126;SDS011;54931;52.098;21.006;2022-07-09T12:59:59;3.80;;;1.60;;
68126;SDS011;54931;52.098;21.006;2022-07-09T13:02:26;5.00;;;1.70;;
68126;SDS011;54931;52.098;21.006;2022-07-09T13:04:54;3.50;;;1.60;;
68126;SDS011;54931;52.098;21.006;2022-07-09T13:07:22;6.20;;;1.50;;
68126;SDS011;54931;52.098;21.006;2022-07-09T13:09:49;2.40;;;1.60;;
68126;SDS011;54931;52.098;21.006;2022-07-09T13:12:17;4.50;;;1.80;;
68126;SDS011;54931;52.098;21.006;2022-07-09T13:14:45;4.50;;;1.70;;
68126;SDS011;54931;52.098;21.006;2022-07-09T13:17:12;4.30;;;1.90;;
68126;SDS011;54931;52.098;21.006;2022-07-09T13:19:40;10.40;;;1.90;;
68126;SDS011;54931;52.098;21.006;2022-07-09T13:22:07;4.60;;;1.80;;
68126;SDS011;54931;52.098;21.006;2022-07-09T13:24:36;6.60;;;1.60;;
68126;SDS011;54931;52.098;21.006;2022-07-09T13:27:04;3.90;;;1.70;;
68126;SDS011;54931;52.098;21.006;2022-07-09T13:29:35;3.60;;;2.10;;
68126;SDS011;54931;52.098;21.006;2022-07-09T13:32:04;2.50;;;1.60;;
68126;SDS011;54931;52.098;21.006;2022-07-09T13:34:32;2.50;;;1.70;;
68126;SDS011;54931;52.098;21.006;2022-07-09T13:36:59;3.50;;;2.10;;
68126;SDS011;54931;52.098;21.006;2022-07-09T13:39:27;3.30;;;1.90;;
68126;SDS011;54931;52.098;21.006;2022-07-09T13:41:55;4.00;;;2.30;;
68126;SDS011;54931;52.098;21.006;2022-07-09T13:44:23;6.90;;;2.00;;
68126;SDS011;54931;52.098;21.006;2022-07-09T13:46:50;5.30;;;2.20;;
68126;SDS011;54931;52.098;21.006;2022-07-09T13:49:19;4.00;;;2.30;;
68126;SDS011;54931;52.098;21.006;2022-07-09T13:51:47;3.80;;;2.10;;
68126;SDS011;54931;52.098;21.006;2022-07-09T13:54:14;4.80;;;2.30;;
68126;SDS011;54931;52.098;21.006;2022-07-09T13:56:42;5.60;;;2.30;;
68126;SDS011;54931;52.098;21.006;2022-07-09T13:59:09;6.20;;;2.70;;
68126;SDS011;54931;52.098;21.006;2022-07-09T14:01:37;6.00;;;2.80;;
68126;SDS011;54931;52.098;21.006;2022-07-09T14:04:05;5.80;;;2.70;;
68126;SDS011;54931;52.098;21.006;2022-07-09T14:06:33;4.40;;;2.70;;
68126;SDS011;54931;52.098;21.006;2022-07-09T14:09:00;6.40;;;2.40;;
68126;SDS011;54931;52.098;21.006;2022-07-09T14:11:28;6.20;;;2.70;;
68126;SDS011;54931;52.098;21.006;2022-07-09T14:13:55;5.40;;;2.40;;
68126;SDS011;54931;52.098;21.006;2022-07-09T14:16:24;4.80;;;2.70;;
68126;SDS011;54931;52.098;21.006;2022-07-09T14:18:52;7.00;;;2.70;;
68126;SDS011;54931;52.098;21.006;2022-07-09T14:21:21;4.70;;;2.40;;
68126;SDS011;54931;52.098;21.006;2022-07-09T14:23:49;4.40;;;2.50;;
68126;SDS011;54931;52.098;21.006;2022-07-09T14:26:17;6.60;;;2.70;;
68126;SDS011;54931;52.098;21.006;2022-07-09T14:28:45;4.20;;;2.20;;
68126;SDS011;54931;52.098;21.006;2022-07-09T14:31:13;5.80;;;2.50;;
68126;SDS011;54931;52.098;21.006;2022-07-09T14:33:41;7.30;;;2.30;;
68126;SDS011;54931;52.098;21.006;2022-07-09T14:36:08;3.90;;;2.40;;
68126;SDS011;54931;52.098;21.006;2022-07-09T14:38:35;4.80;;;2.10;;
68126;SDS011;54931;52.098;21.006;2022-07-09T14:41:04;3.70;;;2.20;;
68126;SDS011;54931;52.098;21.006;2022-07-09T14:43:31;5.20;;;2.50;;
68126;SDS011;54931;52.098;21.006;2022-07-09T14:45:59;7.10;;;2.60;;
68126;SDS011;54931;52.098;21.006;2022-07-09T14:48:26;7.20;;;2.40;;
68126;SDS011;54931;52.098;21.006;2022-07-09T14:50:53;3.00;;;2.30;;
68126;SDS011;54931;52.098;21.006;2022-07-09T14:53:21;5.80;;;2.60;;